AAL135 KLAX-EGLL
Flight info
| Callsign | AAL135 |
|---|---|
| Flight time | N/A |
| Altitude | 35000 |
| Route | ORCKA5 BEALE DCT EEVUN DCT BCE DCT MBW DCT RAP DCT KP06A DCT MISAX DCT PELEE DCT BROME/N0481F370 DCT LOMSI/M083F380 DCT 55N050W 57N040W 58N030W 56N020W DCT PIKIL DCT SOVED/N0473F390 DCT LUTOV DCT KELLY L10 WAL UY53 NUGRA |
| Aircraft | B77W/H-SDE1E2E3FGHIJ2J3J4J5M1RWXY/LB1D1 |
Departure
| Time | 2026-04-22 05:30 |
|---|---|
| Airport | Los Angeles International Airport (KLAX) |
Arrival
| Time | N/A |
|---|---|
| Airport | London Heathrow Airport (EGLL) |
| Time | Latitude | Longitude | Altitude | Speed | Heading |
|---|---|---|---|---|---|
| 2026-04-22 04:40 | 33.94020 | -118.41076 | 99 ft | 0 kts | 83° |
| 2026-04-22 04:41 | 33.94021 | -118.41069 | 99 ft | 0 kts | 83° |
| 2026-04-22 05:13 | 33.94019 | -118.41088 | 98 ft | 4 kts | 83° |
| 2026-04-22 05:14 | 33.94016 | -118.41120 | 96 ft | 4 kts | 83° |
| 2026-04-22 05:14 | 33.94014 | -118.41146 | 95 ft | 4 kts | 85° |
| 2026-04-22 05:14 | 33.94017 | -118.41175 | 95 ft | 4 kts | 132° |
| 2026-04-22 05:14 | 33.94036 | -118.41186 | 97 ft | 4 kts | 173° |
| 2026-04-22 05:15 | 33.94063 | -118.41190 | 97 ft | 3 kts | 173° |
| 2026-04-22 05:15 | 33.94067 | -118.41191 | 97 ft | 0 kts | 173° |
| 2026-04-22 05:18 | 33.94066 | -118.41191 | 97 ft | 1 kts | 173° |
| 2026-04-22 05:18 | 33.94036 | -118.41186 | 97 ft | 5 kts | 174° |
| 2026-04-22 05:19 | 33.94001 | -118.41182 | 98 ft | 5 kts | 174° |
| 2026-04-22 05:19 | 33.93971 | -118.41178 | 100 ft | 4 kts | 174° |
| 2026-04-22 05:19 | 33.93944 | -118.41175 | 98 ft | 4 kts | 174° |
| 2026-04-22 05:19 | 33.93918 | -118.41172 | 98 ft | 5 kts | 174° |
| 2026-04-22 05:20 | 33.93863 | -118.41163 | 98 ft | 15 kts | 172° |
| 2026-04-22 05:20 | 33.93773 | -118.41111 | 100 ft | 13 kts | 112° |
| 2026-04-22 05:20 | 33.93776 | -118.41007 | 98 ft | 12 kts | 83° |
| 2026-04-22 05:20 | 33.93785 | -118.40908 | 98 ft | 11 kts | 84° |
| 2026-04-22 05:21 | 33.93795 | -118.40817 | 100 ft | 10 kts | 80° |
| 2026-04-22 05:21 | 33.93806 | -118.40734 | 99 ft | 10 kts | 82° |
| 2026-04-22 05:21 | 33.93814 | -118.40655 | 99 ft | 9 kts | 84° |
| 2026-04-22 05:21 | 33.93820 | -118.40580 | 102 ft | 9 kts | 84° |
| 2026-04-22 05:22 | 33.93828 | -118.40510 | 102 ft | 8 kts | 82° |
| 2026-04-22 05:22 | 33.93834 | -118.40438 | 100 ft | 11 kts | 84° |
| 2026-04-22 05:22 | 33.93847 | -118.40326 | 100 ft | 14 kts | 82° |
| 2026-04-22 05:22 | 33.93856 | -118.40212 | 101 ft | 13 kts | 84° |
| 2026-04-22 05:23 | 33.93860 | -118.40172 | 101 ft | 13 kts | 84° |
| 2026-04-22 05:23 | 33.93871 | -118.40060 | 102 ft | 13 kts | 81° |
| 2026-04-22 05:23 | 33.93883 | -118.39950 | 104 ft | 13 kts | 82° |
| 2026-04-22 05:23 | 33.93895 | -118.39840 | 103 ft | 13 kts | 82° |
| 2026-04-22 05:24 | 33.93907 | -118.39730 | 101 ft | 13 kts | 83° |
| 2026-04-22 05:24 | 33.93919 | -118.39621 | 100 ft | 13 kts | 83° |
| 2026-04-22 05:24 | 33.93931 | -118.39511 | 99 ft | 13 kts | 83° |
| 2026-04-22 05:24 | 33.93942 | -118.39402 | 100 ft | 13 kts | 83° |
| 2026-04-22 05:25 | 33.93954 | -118.39292 | 100 ft | 13 kts | 83° |
| 2026-04-22 05:25 | 33.93964 | -118.39183 | 102 ft | 13 kts | 84° |
| 2026-04-22 05:25 | 33.93973 | -118.39075 | 99 ft | 13 kts | 84° |
| 2026-04-22 05:25 | 33.93984 | -118.38968 | 100 ft | 13 kts | 83° |
| 2026-04-22 05:26 | 33.93995 | -118.38863 | 99 ft | 13 kts | 83° |
| 2026-04-22 05:26 | 33.94007 | -118.38757 | 100 ft | 13 kts | 83° |
| 2026-04-22 05:26 | 33.94018 | -118.38651 | 101 ft | 13 kts | 83° |
| 2026-04-22 05:26 | 33.94029 | -118.38545 | 100 ft | 13 kts | 84° |
| 2026-04-22 05:27 | 33.94038 | -118.38439 | 103 ft | 13 kts | 84° |
| 2026-04-22 05:27 | 33.94049 | -118.38334 | 102 ft | 13 kts | 83° |
| 2026-04-22 05:27 | 33.94060 | -118.38229 | 100 ft | 13 kts | 83° |
| 2026-04-22 05:27 | 33.94071 | -118.38120 | 100 ft | 13 kts | 83° |
| 2026-04-22 05:28 | 33.94070 | -118.38027 | 98 ft | 8 kts | 121° |
| 2026-04-22 05:28 | 33.94026 | -118.38011 | 100 ft | 6 kts | 177° |
| 2026-04-22 05:28 | 33.93993 | -118.38027 | 99 ft | 4 kts | 228° |
| 2026-04-22 05:28 | 33.93983 | -118.38053 | 100 ft | 3 kts | 254° |
| 2026-04-22 05:29 | 33.93981 | -118.38074 | 98 ft | 5 kts | 262° |
| 2026-04-22 05:29 | 33.93958 | -118.38277 | 103 ft | 54 kts | 262° |
| 2026-04-22 05:29 | 33.93883 | -118.39009 | 103 ft | 120 kts | 263° |
| 2026-04-22 05:29 | 33.93758 | -118.40226 | 113 ft | 169 kts | 263° |
| 2026-04-22 05:30 | 33.93609 | -118.41662 | 573 ft | 173 kts | 263° |
| 2026-04-22 05:30 | 33.93481 | -118.43127 | 1144 ft | 176 kts | 265° |
| 2026-04-22 05:30 | 33.93376 | -118.44600 | 1763 ft | 177 kts | 265° |
| 2026-04-22 05:30 | 33.93170 | -118.46069 | 2182 ft | 184 kts | 252° |
| 2026-04-22 05:31 | 33.92420 | -118.47454 | 2213 ft | 211 kts | 227° |
| 2026-04-22 05:31 | 33.91343 | -118.48686 | 2790 ft | 215 kts | 225° |
| 2026-04-22 05:31 | 33.90246 | -118.49957 | 3269 ft | 223 kts | 225° |
| 2026-04-22 05:31 | 33.89252 | -118.51378 | 3683 ft | 228 kts | 240° |
| 2026-04-22 05:32 | 33.88353 | -118.52994 | 4143 ft | 237 kts | 237° |
| 2026-04-22 05:32 | 33.87350 | -118.54568 | 4763 ft | 237 kts | 230° |
| 2026-04-22 05:32 | 33.86353 | -118.55720 | 5284 ft | 240 kts | 213° |
| 2026-04-22 05:32 | 33.84684 | -118.56406 | 5287 ft | 272 kts | 182° |
| 2026-04-22 05:33 | 33.82887 | -118.55740 | 5985 ft | 272 kts | 153° |
| 2026-04-22 05:33 | 33.81152 | -118.54850 | 6516 ft | 273 kts | 171° |
| 2026-04-22 05:33 | 33.79270 | -118.54441 | 7052 ft | 278 kts | 173° |
| 2026-04-22 05:33 | 33.77371 | -118.53979 | 7742 ft | 279 kts | 172° |
| 2026-04-22 05:34 | 33.75462 | -118.53500 | 8444 ft | 281 kts | 173° |
| 2026-04-22 05:34 | 33.73537 | -118.53023 | 9115 ft | 284 kts | 174° |
| 2026-04-22 05:34 | 33.71596 | -118.52517 | 9741 ft | 287 kts | 168° |
| 2026-04-22 05:34 | 33.69827 | -118.51291 | 10185 ft | 309 kts | 138° |
| 2026-04-22 05:35 | 33.68654 | -118.49007 | 10347 ft | 336 kts | 113° |
| 2026-04-22 05:35 | 33.67900 | -118.46261 | 10521 ft | 357 kts | 111° |
| 2026-04-22 05:35 | 33.67099 | -118.43348 | 10679 ft | 379 kts | 111° |
| 2026-04-22 05:35 | 33.66219 | -118.40281 | 10935 ft | 397 kts | 112° |
| 2026-04-22 05:36 | 33.65285 | -118.37106 | 11452 ft | 408 kts | 112° |
| 2026-04-22 05:36 | 33.64421 | -118.33844 | 12034 ft | 412 kts | 104° |
| 2026-04-22 05:36 | 33.64271 | -118.30414 | 12586 ft | 421 kts | 88° |
| 2026-04-22 05:36 | 33.64442 | -118.26819 | 13209 ft | 431 kts | 89° |
| 2026-04-22 05:37 | 33.64503 | -118.23247 | 13967 ft | 433 kts | 90° |
| 2026-04-22 05:37 | 33.64968 | -118.19663 | 14411 ft | 442 kts | 69° |
| 2026-04-22 05:37 | 33.66483 | -118.16463 | 15051 ft | 443 kts | 48° |
| 2026-04-22 05:37 | 33.68704 | -118.13955 | 15861 ft | 435 kts | 33° |
| 2026-04-22 05:38 | 33.71163 | -118.11798 | 16524 ft | 441 kts | 31° |
| 2026-04-22 05:38 | 33.73668 | -118.09624 | 17216 ft | 447 kts | 31° |
| 2026-04-22 05:38 | 33.76191 | -118.07418 | 17944 ft | 451 kts | 32° |
| 2026-04-22 05:38 | 33.78729 | -118.05175 | 18647 ft | 455 kts | 32° |
| 2026-04-22 05:39 | 33.81282 | -118.02895 | 19275 ft | 460 kts | 32° |
| 2026-04-22 05:39 | 33.83861 | -118.00579 | 19937 ft | 464 kts | 32° |
| 2026-04-22 05:39 | 33.86456 | -117.98241 | 20566 ft | 468 kts | 32° |
| 2026-04-22 05:39 | 33.89073 | -117.95884 | 21201 ft | 473 kts | 32° |
| 2026-04-22 05:40 | 33.91722 | -117.93495 | 21784 ft | 478 kts | 32° |
| 2026-04-22 05:40 | 33.94389 | -117.91063 | 22374 ft | 482 kts | 32° |
| 2026-04-22 05:40 | 33.97071 | -117.88604 | 22980 ft | 487 kts | 32° |
| 2026-04-22 05:40 | 33.99782 | -117.86121 | 23552 ft | 491 kts | 31° |
| 2026-04-22 05:41 | 34.02511 | -117.83622 | 24072 ft | 495 kts | 31° |
| 2026-04-22 05:41 | 34.05224 | -117.81137 | 24555 ft | 498 kts | 31° |
| 2026-04-22 05:41 | 34.07995 | -117.78596 | 25067 ft | 501 kts | 32° |
| 2026-04-22 05:41 | 34.10623 | -117.75797 | 25507 ft | 512 kts | 42° |
| 2026-04-22 05:42 | 34.12923 | -117.72461 | 25928 ft | 520 kts | 48° |
| 2026-04-22 05:42 | 34.15118 | -117.68974 | 26375 ft | 524 kts | 49° |
| 2026-04-22 05:42 | 34.17331 | -117.65457 | 26824 ft | 527 kts | 48° |
| 2026-04-22 05:42 | 34.19588 | -117.61959 | 27268 ft | 530 kts | 47° |
| 2026-04-22 05:43 | 34.21904 | -117.58464 | 27627 ft | 534 kts | 46° |
| 2026-04-22 05:43 | 34.24255 | -117.54972 | 28035 ft | 537 kts | 46° |
| 2026-04-22 05:43 | 34.26623 | -117.51476 | 28460 ft | 539 kts | 46° |
| 2026-04-22 05:43 | 34.29002 | -117.47946 | 28821 ft | 543 kts | 46° |
| 2026-04-22 05:44 | 34.31384 | -117.44392 | 29184 ft | 545 kts | 47° |
| 2026-04-22 05:44 | 34.33776 | -117.40815 | 29615 ft | 546 kts | 47° |
| 2026-04-22 05:44 | 34.35901 | -117.37633 | 30069 ft | 545 kts | 47° |
| 2026-04-22 05:44 | 34.38277 | -117.34070 | 30546 ft | 543 kts | 47° |
| 2026-04-22 05:45 | 34.40652 | -117.30506 | 30972 ft | 542 kts | 47° |
| 2026-04-22 05:45 | 34.43020 | -117.26953 | 31361 ft | 542 kts | 47° |
| 2026-04-22 05:45 | 34.45390 | -117.23394 | 31774 ft | 542 kts | 47° |
| 2026-04-22 05:45 | 34.47754 | -117.19841 | 32173 ft | 542 kts | 47° |
| 2026-04-22 05:46 | 34.50118 | -117.16284 | 32494 ft | 541 kts | 47° |
| 2026-04-22 05:46 | 34.52471 | -117.12742 | 32944 ft | 538 kts | 47° |
| 2026-04-22 05:46 | 34.54789 | -117.09248 | 33375 ft | 537 kts | 47° |
| 2026-04-22 05:46 | 34.57154 | -117.05752 | 33727 ft | 536 kts | 46° |
| 2026-04-22 05:47 | 34.59546 | -117.02277 | 34074 ft | 536 kts | 46° |
| 2026-04-22 05:47 | 34.61944 | -116.98809 | 34383 ft | 535 kts | 46° |
| 2026-04-22 05:47 | 34.64336 | -116.95349 | 34651 ft | 536 kts | 46° |
| 2026-04-22 05:47 | 34.66735 | -116.91868 | 34880 ft | 537 kts | 46° |
| 2026-04-22 05:48 | 34.69137 | -116.88371 | 35001 ft | 541 kts | 46° |
| 2026-04-22 05:48 | 34.71549 | -116.84850 | 35044 ft | 542 kts | 47° |